sensor_id;sensor_type;location;lat;lon;timestamp;P1;durP1;ratioP1;P2;durP2;ratioP2
12631;SDS011;6381;45.748;12.106;2022-09-29T00:00:08;8.17;;;4.67;;
12631;SDS011;6381;45.748;12.106;2022-09-29T00:02:38;7.57;;;4.10;;
12631;SDS011;6381;45.748;12.106;2022-09-29T00:05:07;9.80;;;4.97;;
12631;SDS011;6381;45.748;12.106;2022-09-29T00:07:36;8.00;;;4.37;;
12631;SDS011;6381;45.748;12.106;2022-09-29T00:10:05;8.20;;;4.30;;
12631;SDS011;6381;45.748;12.106;2022-09-29T00:12:35;7.70;;;4.40;;
12631;SDS011;6381;45.748;12.106;2022-09-29T00:15:04;5.80;;;4.10;;
12631;SDS011;6381;45.748;12.106;2022-09-29T00:17:33;8.33;;;5.10;;
12631;SDS011;6381;45.748;12.106;2022-09-29T00:20:02;7.70;;;4.07;;
12631;SDS011;6381;45.748;12.106;2022-09-29T00:22:32;6.93;;;4.57;;
12631;SDS011;6381;45.748;12.106;2022-09-29T00:25:00;7.93;;;3.93;;
12631;SDS011;6381;45.748;12.106;2022-09-29T00:27:29;7.47;;;4.03;;
12631;SDS011;6381;45.748;12.106;2022-09-29T00:29:59;7.60;;;3.87;;
12631;SDS011;6381;45.748;12.106;2022-09-29T00:32:28;7.30;;;4.07;;
12631;SDS011;6381;45.748;12.106;2022-09-29T00:34:56;13.20;;;4.23;;
12631;SDS011;6381;45.748;12.106;2022-09-29T00:37:25;6.40;;;3.87;;
12631;SDS011;6381;45.748;12.106;2022-09-29T00:39:53;5.90;;;4.10;;
12631;SDS011;6381;45.748;12.106;2022-09-29T00:42:22;10.03;;;4.23;;
12631;SDS011;6381;45.748;12.106;2022-09-29T00:44:53;8.17;;;4.17;;
12631;SDS011;6381;45.748;12.106;2022-09-29T00:47:29;7.47;;;3.85;;
12631;SDS011;6381;45.748;12.106;2022-09-29T00:50:02;9.17;;;4.33;;
12631;SDS011;6381;45.748;12.106;2022-09-29T00:52:34;6.07;;;3.67;;
12631;SDS011;6381;45.748;12.106;2022-09-29T00:55:08;8.20;;;4.00;;
12631;SDS011;6381;45.748;12.106;2022-09-29T00:57:43;9.97;;;3.97;;
12631;SDS011;6381;45.748;12.106;2022-09-29T01:00:15;7.72;;;3.92;;
12631;SDS011;6381;45.748;12.106;2022-09-29T01:02:45;8.20;;;3.97;;
12631;SDS011;6381;45.748;12.106;2022-09-29T01:05:17;8.33;;;3.93;;
12631;SDS011;6381;45.748;12.106;2022-09-29T01:07:50;5.77;;;3.30;;
12631;SDS011;6381;45.748;12.106;2022-09-29T01:10:20;7.23;;;3.70;;
12631;SDS011;6381;45.748;12.106;2022-09-29T01:12:50;8.43;;;3.90;;
12631;SDS011;6381;45.748;12.106;2022-09-29T01:15:19;6.20;;;3.20;;
12631;SDS011;6381;45.748;12.106;2022-09-29T01:17:50;8.82;;;3.60;;
12631;SDS011;6381;45.748;12.106;2022-09-29T01:20:19;7.13;;;3.77;;
12631;SDS011;6381;45.748;12.106;2022-09-29T01:25:57;5.27;;;3.40;;
12631;SDS011;6381;45.748;12.106;2022-09-29T01:28:51;7.57;;;3.10;;
12631;SDS011;6381;45.748;12.106;2022-09-29T01:31:50;6.20;;;3.17;;
12631;SDS011;6381;45.748;12.106;2022-09-29T01:34:25;7.57;;;3.23;;
12631;SDS011;6381;45.748;12.106;2022-09-29T01:37:05;6.05;;;3.20;;
12631;SDS011;6381;45.748;12.106;2022-09-29T01:39:44;7.57;;;3.15;;
12631;SDS011;6381;45.748;12.106;2022-09-29T01:42:21;8.23;;;3.20;;
12631;SDS011;6381;45.748;12.106;2022-09-29T01:44:54;8.87;;;3.80;;
12631;SDS011;6381;45.748;12.106;2022-09-29T01:47:28;6.20;;;3.23;;
12631;SDS011;6381;45.748;12.106;2022-09-29T01:50:03;7.07;;;3.27;;
12631;SDS011;6381;45.748;12.106;2022-09-29T01:52:37;6.37;;;3.40;;
12631;SDS011;6381;45.748;12.106;2022-09-29T01:55:09;4.43;;;2.97;;
12631;SDS011;6381;45.748;12.106;2022-09-29T01:57:44;9.60;;;3.20;;
12631;SDS011;6381;45.748;12.106;2022-09-29T02:00:18;6.27;;;3.67;;
12631;SDS011;6381;45.748;12.106;2022-09-29T02:02:51;5.70;;;3.00;;
12631;SDS011;6381;45.748;12.106;2022-09-29T02:05:24;5.37;;;2.73;;
12631;SDS011;6381;45.748;12.106;2022-09-29T02:08:06;5.73;;;2.97;;
12631;SDS011;6381;45.748;12.106;2022-09-29T02:10:39;6.20;;;2.93;;
12631;SDS011;6381;45.748;12.106;2022-09-29T02:13:14;7.17;;;3.40;;
12631;SDS011;6381;45.748;12.106;2022-09-29T02:15:44;5.40;;;2.93;;
12631;SDS011;6381;45.748;12.106;2022-09-29T02:18:19;5.57;;;3.00;;
12631;SDS011;6381;45.748;12.106;2022-09-29T02:20:50;5.83;;;3.10;;
12631;SDS011;6381;45.748;12.106;2022-09-29T02:23:19;4.57;;;2.73;;
12631;SDS011;6381;45.748;12.106;2022-09-29T02:25:48;5.72;;;2.78;;
12631;SDS011;6381;45.748;12.106;2022-09-29T02:28:19;4.97;;;2.90;;
12631;SDS011;6381;45.748;12.106;2022-09-29T02:30:48;4.87;;;2.90;;
12631;SDS011;6381;45.748;12.106;2022-09-29T02:33:21;6.17;;;3.57;;
12631;SDS011;6381;45.748;12.106;2022-09-29T02:35:55;7.07;;;2.87;;
12631;SDS011;6381;45.748;12.106;2022-09-29T02:38:32;8.23;;;3.60;;
12631;SDS011;6381;45.748;12.106;2022-09-29T02:41:14;6.73;;;3.10;;
12631;SDS011;6381;45.748;12.106;2022-09-29T02:44:00;4.07;;;2.60;;
12631;SDS011;6381;45.748;12.106;2022-09-29T02:46:49;6.03;;;3.07;;
12631;SDS011;6381;45.748;12.106;2022-09-29T02:49:45;5.67;;;2.70;;
12631;SDS011;6381;45.748;12.106;2022-09-29T02:52:28;5.03;;;2.70;;
12631;SDS011;6381;45.748;12.106;2022-09-29T02:55:12;3.83;;;2.90;;
12631;SDS011;6381;45.748;12.106;2022-09-29T02:57:47;5.93;;;3.07;;
12631;SDS011;6381;45.748;12.106;2022-09-29T03:00:19;5.67;;;3.03;;
12631;SDS011;6381;45.748;12.106;2022-09-29T03:02:49;8.70;;;3.03;;
12631;SDS011;6381;45.748;12.106;2022-09-29T03:05:20;7.03;;;3.00;;
12631;SDS011;6381;45.748;12.106;2022-09-29T03:07:50;7.97;;;3.27;;
12631;SDS011;6381;45.748;12.106;2022-09-29T03:10:19;5.90;;;3.23;;
12631;SDS011;6381;45.748;12.106;2022-09-29T03:12:55;5.63;;;3.30;;
12631;SDS011;6381;45.748;12.106;2022-09-29T03:15:24;5.83;;;3.33;;
12631;SDS011;6381;45.748;12.106;2022-09-29T03:17:54;5.80;;;2.97;;
12631;SDS011;6381;45.748;12.106;2022-09-29T03:20:25;6.53;;;3.20;;
12631;SDS011;6381;45.748;12.106;2022-09-29T03:22:54;4.73;;;3.30;;
12631;SDS011;6381;45.748;12.106;2022-09-29T03:25:24;3.87;;;2.70;;
12631;SDS011;6381;45.748;12.106;2022-09-29T03:27:54;4.90;;;2.90;;
12631;SDS011;6381;45.748;12.106;2022-09-29T03:30:23;7.23;;;4.27;;
12631;SDS011;6381;45.748;12.106;2022-09-29T03:32:52;9.17;;;4.03;;
12631;SDS011;6381;45.748;12.106;2022-09-29T03:35:21;7.33;;;3.80;;
12631;SDS011;6381;45.748;12.106;2022-09-29T03:37:52;4.93;;;3.60;;
12631;SDS011;6381;45.748;12.106;2022-09-29T03:40:24;7.73;;;4.07;;
12631;SDS011;6381;45.748;12.106;2022-09-29T03:42:54;6.93;;;3.73;;
12631;SDS011;6381;45.748;12.106;2022-09-29T03:45:23;7.50;;;3.90;;
12631;SDS011;6381;45.748;12.106;2022-09-29T03:47:52;7.37;;;4.43;;
12631;SDS011;6381;45.748;12.106;2022-09-29T03:50:22;8.37;;;4.10;;
12631;SDS011;6381;45.748;12.106;2022-09-29T03:52:52;5.80;;;3.80;;
12631;SDS011;6381;45.748;12.106;2022-09-29T03:55:21;6.97;;;4.00;;
12631;SDS011;6381;45.748;12.106;2022-09-29T03:57:50;5.97;;;4.13;;
12631;SDS011;6381;45.748;12.106;2022-09-29T04:00:19;6.83;;;3.80;;
12631;SDS011;6381;45.748;12.106;2022-09-29T04:02:48;6.00;;;4.00;;
12631;SDS011;6381;45.748;12.106;2022-09-29T04:05:17;5.80;;;4.20;;
12631;SDS011;6381;45.748;12.106;2022-09-29T04:07:46;6.17;;;4.00;;
12631;SDS011;6381;45.748;12.106;2022-09-29T04:10:18;5.70;;;4.20;;
12631;SDS011;6381;45.748;12.106;2022-09-29T04:12:47;8.43;;;4.13;;
12631;SDS011;6381;45.748;12.106;2022-09-29T04:15:16;6.40;;;4.00;;
12631;SDS011;6381;45.748;12.106;2022-09-29T04:17:45;6.57;;;3.60;;
12631;SDS011;6381;45.748;12.106;2022-09-29T04:20:14;6.17;;;4.33;;
12631;SDS011;6381;45.748;12.106;2022-09-29T04:22:43;6.87;;;4.03;;
12631;SDS011;6381;45.748;12.106;2022-09-29T04:25:12;6.07;;;4.07;;
12631;SDS011;6381;45.748;12.106;2022-09-29T04:27:43;5.13;;;3.73;;
12631;SDS011;6381;45.748;12.106;2022-09-29T04:30:12;6.43;;;3.43;;
12631;SDS011;6381;45.748;12.106;2022-09-29T04:32:42;5.77;;;4.17;;
12631;SDS011;6381;45.748;12.106;2022-09-29T04:35:11;7.90;;;4.60;;
12631;SDS011;6381;45.748;12.106;2022-09-29T04:37:40;6.73;;;5.43;;
12631;SDS011;6381;45.748;12.106;2022-09-29T04:40:09;6.30;;;4.70;;
12631;SDS011;6381;45.748;12.106;2022-09-29T04:42:38;6.00;;;4.03;;
12631;SDS011;6381;45.748;12.106;2022-09-29T04:45:09;8.83;;;4.30;;
12631;SDS011;6381;45.748;12.106;2022-09-29T04:47:38;6.47;;;4.60;;
12631;SDS011;6381;45.748;12.106;2022-09-29T04:50:08;9.57;;;4.63;;
12631;SDS011;6381;45.748;12.106;2022-09-29T04:52:37;7.23;;;4.27;;
12631;SDS011;6381;45.748;12.106;2022-09-29T04:55:09;7.43;;;4.47;;
12631;SDS011;6381;45.748;12.106;2022-09-29T04:57:38;8.67;;;4.10;;
12631;SDS011;6381;45.748;12.106;2022-09-29T05:00:11;10.00;;;4.30;;
12631;SDS011;6381;45.748;12.106;2022-09-29T05:02:42;6.60;;;4.23;;
12631;SDS011;6381;45.748;12.106;2022-09-29T05:05:15;7.63;;;4.90;;
12631;SDS011;6381;45.748;12.106;2022-09-29T05:07:45;8.83;;;4.50;;
12631;SDS011;6381;45.748;12.106;2022-09-29T05:10:14;9.87;;;5.07;;
12631;SDS011;6381;45.748;12.106;2022-09-29T05:12:46;7.80;;;3.90;;
12631;SDS011;6381;45.748;12.106;2022-09-29T05:15:18;6.53;;;4.40;;
12631;SDS011;6381;45.748;12.106;2022-09-29T05:17:51;10.83;;;4.50;;
12631;SDS011;6381;45.748;12.106;2022-09-29T05:20:20;5.37;;;4.37;;
12631;SDS011;6381;45.748;12.106;2022-09-29T05:22:49;6.60;;;4.27;;
12631;SDS011;6381;45.748;12.106;2022-09-29T05:25:18;8.30;;;4.30;;
12631;SDS011;6381;45.748;12.106;2022-09-29T05:27:47;8.40;;;4.60;;
12631;SDS011;6381;45.748;12.106;2022-09-29T05:30:18;8.47;;;4.43;;
12631;SDS011;6381;45.748;12.106;2022-09-29T05:32:47;6.00;;;3.80;;
12631;SDS011;6381;45.748;12.106;2022-09-29T05:35:22;6.70;;;4.00;;
12631;SDS011;6381;45.748;12.106;2022-09-29T05:37:51;7.37;;;4.37;;
12631;SDS011;6381;45.748;12.106;2022-09-29T05:40:21;6.43;;;4.50;;
12631;SDS011;6381;45.748;12.106;2022-09-29T05:42:51;7.10;;;3.97;;
12631;SDS011;6381;45.748;12.106;2022-09-29T05:45:21;6.13;;;4.47;;
12631;SDS011;6381;45.748;12.106;2022-09-29T05:47:50;8.97;;;4.47;;
12631;SDS011;6381;45.748;12.106;2022-09-29T05:50:20;8.10;;;4.27;;
12631;SDS011;6381;45.748;12.106;2022-09-29T05:52:49;8.83;;;4.20;;
12631;SDS011;6381;45.748;12.106;2022-09-29T05:55:18;8.63;;;4.43;;
12631;SDS011;6381;45.748;12.106;2022-09-29T05:57:48;6.63;;;4.37;;
12631;SDS011;6381;45.748;12.106;2022-09-29T06:00:17;5.13;;;4.23;;
12631;SDS011;6381;45.748;12.106;2022-09-29T06:02:48;7.93;;;4.80;;
12631;SDS011;6381;45.748;12.106;2022-09-29T06:05:17;7.17;;;4.13;;
12631;SDS011;6381;45.748;12.106;2022-09-29T06:07:46;9.73;;;4.30;;
12631;SDS011;6381;45.748;12.106;2022-09-29T06:10:15;7.80;;;4.00;;
12631;SDS011;6381;45.748;12.106;2022-09-29T06:12:44;7.33;;;4.10;;
12631;SDS011;6381;45.748;12.106;2022-09-29T06:15:13;6.77;;;4.07;;
12631;SDS011;6381;45.748;12.106;2022-09-29T06:17:42;7.33;;;4.37;;
12631;SDS011;6381;45.748;12.106;2022-09-29T06:20:12;6.83;;;4.07;;
12631;SDS011;6381;45.748;12.106;2022-09-29T06:22:41;7.30;;;4.20;;
12631;SDS011;6381;45.748;12.106;2022-09-29T06:25:10;11.13;;;4.70;;
12631;SDS011;6381;45.748;12.106;2022-09-29T06:27:39;8.03;;;4.60;;
12631;SDS011;6381;45.748;12.106;2022-09-29T06:30:09;9.77;;;5.13;;
12631;SDS011;6381;45.748;12.106;2022-09-29T06:32:40;12.27;;;5.90;;
12631;SDS011;6381;45.748;12.106;2022-09-29T06:35:09;10.50;;;5.90;;
12631;SDS011;6381;45.748;12.106;2022-09-29T06:37:57;8.80;;;5.70;;
12631;SDS011;6381;45.748;12.106;2022-09-29T06:40:27;7.60;;;5.47;;
12631;SDS011;6381;45.748;12.106;2022-09-29T06:42:56;10.70;;;4.80;;
12631;SDS011;6381;45.748;12.106;2022-09-29T06:45:25;8.37;;;4.60;;
12631;SDS011;6381;45.748;12.106;2022-09-29T06:47:56;6.63;;;4.60;;
12631;SDS011;6381;45.748;12.106;2022-09-29T06:50:26;9.50;;;4.60;;
12631;SDS011;6381;45.748;12.106;2022-09-29T06:52:57;6.67;;;3.53;;
12631;SDS011;6381;45.748;12.106;2022-09-29T06:55:30;7.20;;;4.28;;
12631;SDS011;6381;45.748;12.106;2022-09-29T06:58:00;5.38;;;3.78;;
12631;SDS011;6381;45.748;12.106;2022-09-29T07:00:30;8.63;;;3.80;;
12631;SDS011;6381;45.748;12.106;2022-09-29T07:03:01;10.82;;;4.13;;
12631;SDS011;6381;45.748;12.106;2022-09-29T07:05:30;5.18;;;3.25;;
12631;SDS011;6381;45.748;12.106;2022-09-29T07:08:01;7.45;;;3.70;;
12631;SDS011;6381;45.748;12.106;2022-09-29T07:10:30;5.63;;;3.30;;
12631;SDS011;6381;45.748;12.106;2022-09-29T07:12:59;5.30;;;3.90;;
12631;SDS011;6381;45.748;12.106;2022-09-29T07:15:28;5.60;;;3.28;;
12631;SDS011;6381;45.748;12.106;2022-09-29T07:17:58;8.50;;;4.38;;
12631;SDS011;6381;45.748;12.106;2022-09-29T07:20:28;6.90;;;3.42;;
12631;SDS011;6381;45.748;12.106;2022-09-29T07:22:58;6.30;;;3.25;;
12631;SDS011;6381;45.748;12.106;2022-09-29T07:25:28;6.20;;;3.20;;
12631;SDS011;6381;45.748;12.106;2022-09-29T07:28:17;6.28;;;3.22;;
12631;SDS011;6381;45.748;12.106;2022-09-29T07:30:56;5.28;;;3.05;;
12631;SDS011;6381;45.748;12.106;2022-09-29T07:33:39;5.32;;;2.97;;
12631;SDS011;6381;45.748;12.106;2022-09-29T07:36:09;6.68;;;3.33;;
12631;SDS011;6381;45.748;12.106;2022-09-29T07:38:38;3.30;;;2.80;;
12631;SDS011;6381;45.748;12.106;2022-09-29T07:41:09;6.35;;;3.15;;
12631;SDS011;6381;45.748;12.106;2022-09-29T07:43:39;8.60;;;3.28;;
12631;SDS011;6381;45.748;12.106;2022-09-29T07:46:08;7.20;;;3.40;;
12631;SDS011;6381;45.748;12.106;2022-09-29T07:48:38;8.93;;;4.10;;
12631;SDS011;6381;45.748;12.106;2022-09-29T07:51:07;6.07;;;3.83;;
12631;SDS011;6381;45.748;12.106;2022-09-29T07:53:39;9.70;;;3.83;;
12631;SDS011;6381;45.748;12.106;2022-09-29T07:56:11;7.65;;;4.00;;
12631;SDS011;6381;45.748;12.106;2022-09-29T07:58:41;6.95;;;4.22;;
12631;SDS011;6381;45.748;12.106;2022-09-29T08:01:11;7.15;;;4.43;;
12631;SDS011;6381;45.748;12.106;2022-09-29T08:03:42;9.05;;;4.32;;
12631;SDS011;6381;45.748;12.106;2022-09-29T08:06:13;10.57;;;4.93;;
12631;SDS011;6381;45.748;12.106;2022-09-29T08:08:42;15.47;;;5.73;;
12631;SDS011;6381;45.748;12.106;2022-09-29T08:11:29;9.68;;;5.70;;
12631;SDS011;6381;45.748;12.106;2022-09-29T08:13:59;6.63;;;5.25;;
12631;SDS011;6381;45.748;12.106;2022-09-29T08:16:28;6.07;;;4.47;;
12631;SDS011;6381;45.748;12.106;2022-09-29T08:18:58;6.60;;;4.13;;
12631;SDS011;6381;45.748;12.106;2022-09-29T08:21:28;7.32;;;4.30;;
12631;SDS011;6381;45.748;12.106;2022-09-29T08:23:57;8.27;;;4.70;;
12631;SDS011;6381;45.748;12.106;2022-09-29T08:26:29;9.27;;;4.68;;
12631;SDS011;6381;45.748;12.106;2022-09-29T08:29:09;5.90;;;4.30;;
12631;SDS011;6381;45.748;12.106;2022-09-29T08:31:43;6.90;;;4.47;;
12631;SDS011;6381;45.748;12.106;2022-09-29T08:34:13;12.55;;;7.68;;
12631;SDS011;6381;45.748;12.106;2022-09-29T08:36:42;18.93;;;10.83;;
12631;SDS011;6381;45.748;12.106;2022-09-29T08:39:11;11.47;;;7.27;;
12631;SDS011;6381;45.748;12.106;2022-09-29T08:44:33;11.13;;;6.07;;
12631;SDS011;6381;45.748;12.106;2022-09-29T08:47:14;9.05;;;4.82;;
12631;SDS011;6381;45.748;12.106;2022-09-29T08:49:50;9.13;;;5.27;;
12631;SDS011;6381;45.748;12.106;2022-09-29T08:52:23;8.73;;;5.37;;
12631;SDS011;6381;45.748;12.106;2022-09-29T08:55:02;11.00;;;6.00;;
12631;SDS011;6381;45.748;12.106;2022-09-29T08:57:50;9.07;;;5.77;;
12631;SDS011;6381;45.748;12.106;2022-09-29T09:00:27;10.57;;;6.40;;
12631;SDS011;6381;45.748;12.106;2022-09-29T09:03:08;10.97;;;6.50;;
12631;SDS011;6381;45.748;12.106;2022-09-29T09:05:46;8.27;;;5.67;;
12631;SDS011;6381;45.748;12.106;2022-09-29T09:08:43;11.63;;;5.00;;
12631;SDS011;6381;45.748;12.106;2022-09-29T09:11:44;8.10;;;4.97;;
12631;SDS011;6381;45.748;12.106;2022-09-29T09:14:33;8.47;;;4.80;;
12631;SDS011;6381;45.748;12.106;2022-09-29T09:17:21;9.60;;;5.50;;
12631;SDS011;6381;45.748;12.106;2022-09-29T09:20:00;9.57;;;6.00;;
12631;SDS011;6381;45.748;12.106;2022-09-29T09:22:42;11.03;;;5.97;;
12631;SDS011;6381;45.748;12.106;2022-09-29T09:25:20;8.90;;;6.07;;
12631;SDS011;6381;45.748;12.106;2022-09-29T09:27:58;9.73;;;5.63;;
12631;SDS011;6381;45.748;12.106;2022-09-29T09:30:38;7.37;;;6.17;;
12631;SDS011;6381;45.748;12.106;2022-09-29T09:33:14;10.93;;;5.93;;
12631;SDS011;6381;45.748;12.106;2022-09-29T09:35:58;8.00;;;5.80;;
12631;SDS011;6381;45.748;12.106;2022-09-29T09:38:40;8.67;;;6.00;;
12631;SDS011;6381;45.748;12.106;2022-09-29T09:41:16;8.93;;;5.30;;
12631;SDS011;6381;45.748;12.106;2022-09-29T09:44:08;8.97;;;5.27;;
12631;SDS011;6381;45.748;12.106;2022-09-29T09:46:59;13.03;;;6.23;;
12631;SDS011;6381;45.748;12.106;2022-09-29T09:49:32;10.13;;;5.87;;
12631;SDS011;6381;45.748;12.106;2022-09-29T09:52:17;9.77;;;6.33;;
12631;SDS011;6381;45.748;12.106;2022-09-29T09:54:51;11.03;;;5.77;;
12631;SDS011;6381;45.748;12.106;2022-09-29T09:57:28;13.73;;;5.80;;
12631;SDS011;6381;45.748;12.106;2022-09-29T10:00:24;10.87;;;6.33;;
12631;SDS011;6381;45.748;12.106;2022-09-29T10:03:00;10.37;;;7.23;;
12631;SDS011;6381;45.748;12.106;2022-09-29T10:05:33;13.67;;;7.10;;
12631;SDS011;6381;45.748;12.106;2022-09-29T10:08:04;8.63;;;6.60;;
12631;SDS011;6381;45.748;12.106;2022-09-29T10:10:36;12.53;;;6.70;;
12631;SDS011;6381;45.748;12.106;2022-09-29T10:13:23;9.03;;;6.10;;
12631;SDS011;6381;45.748;12.106;2022-09-29T10:15:54;10.57;;;6.57;;
12631;SDS011;6381;45.748;12.106;2022-09-29T10:18:27;10.17;;;6.67;;
12631;SDS011;6381;45.748;12.106;2022-09-29T10:20:59;10.07;;;5.97;;
12631;SDS011;6381;45.748;12.106;2022-09-29T10:23:29;11.33;;;5.90;;
12631;SDS011;6381;45.748;12.106;2022-09-29T10:25:59;15.50;;;6.00;;
12631;SDS011;6381;45.748;12.106;2022-09-29T10:28:38;8.70;;;5.20;;
12631;SDS011;6381;45.748;12.106;2022-09-29T10:31:17;8.43;;;5.43;;
12631;SDS011;6381;45.748;12.106;2022-09-29T10:34:14;9.60;;;5.47;;
12631;SDS011;6381;45.748;12.106;2022-09-29T10:36:48;8.67;;;5.40;;
12631;SDS011;6381;45.748;12.106;2022-09-29T10:39:32;8.30;;;5.05;;
12631;SDS011;6381;45.748;12.106;2022-09-29T10:42:30;6.40;;;5.00;;
12631;SDS011;6381;45.748;12.106;2022-09-29T10:45:09;6.88;;;4.78;;
12631;SDS011;6381;45.748;12.106;2022-09-29T10:47:40;7.47;;;4.93;;
12631;SDS011;6381;45.748;12.106;2022-09-29T10:50:29;9.57;;;4.80;;
12631;SDS011;6381;45.748;12.106;2022-09-29T10:53:03;8.13;;;4.63;;
12631;SDS011;6381;45.748;12.106;2022-09-29T10:55:46;8.45;;;5.15;;
12631;SDS011;6381;45.748;12.106;2022-09-29T10:58:19;7.80;;;4.20;;
12631;SDS011;6381;45.748;12.106;2022-09-29T11:01:12;5.82;;;4.22;;
12631;SDS011;6381;45.748;12.106;2022-09-29T11:03:45;9.52;;;4.53;;
12631;SDS011;6381;45.748;12.106;2022-09-29T11:06:23;6.63;;;3.83;;
12631;SDS011;6381;45.748;12.106;2022-09-29T11:08:54;8.02;;;4.28;;
12631;SDS011;6381;45.748;12.106;2022-09-29T11:11:24;6.82;;;3.65;;
12631;SDS011;6381;45.748;12.106;2022-09-29T11:14:21;6.07;;;3.33;;
12631;SDS011;6381;45.748;12.106;2022-09-29T11:16:52;5.93;;;3.45;;
12631;SDS011;6381;45.748;12.106;2022-09-29T11:19:22;6.97;;;3.60;;
12631;SDS011;6381;45.748;12.106;2022-09-29T11:24:58;2.22;;;1.60;;
12631;SDS011;6381;45.748;12.106;2022-09-29T11:27:42;2.42;;;1.50;;
12631;SDS011;6381;45.748;12.106;2022-09-29T11:30:30;1.35;;;1.10;;
12631;SDS011;6381;45.748;12.106;2022-09-29T11:33:11;1.90;;;1.10;;
12631;SDS011;6381;45.748;12.106;2022-09-29T11:35:49;2.10;;;1.30;;
12631;SDS011;6381;45.748;12.106;2022-09-29T11:41:28;3.95;;;1.33;;
12631;SDS011;6381;45.748;12.106;2022-09-29T11:44:13;2.03;;;1.33;;
12631;SDS011;6381;45.748;12.106;2022-09-29T11:47:03;1.88;;;1.10;;
12631;SDS011;6381;45.748;12.106;2022-09-29T11:49:46;2.50;;;1.23;;
12631;SDS011;6381;45.748;12.106;2022-09-29T11:52:37;1.27;;;0.95;;
12631;SDS011;6381;45.748;12.106;2022-09-29T11:55:22;1.27;;;1.10;;
12631;SDS011;6381;45.748;12.106;2022-09-29T11:58:00;2.67;;;1.27;;
12631;SDS011;6381;45.748;12.106;2022-09-29T12:00:47;2.22;;;1.40;;
12631;SDS011;6381;45.748;12.106;2022-09-29T12:03:30;1.92;;;1.40;;
12631;SDS011;6381;45.748;12.106;2022-09-29T12:06:12;5.38;;;1.83;;
12631;SDS011;6381;45.748;12.106;2022-09-29T12:09:00;3.38;;;1.90;;
12631;SDS011;6381;45.748;12.106;2022-09-29T12:12:02;2.83;;;2.03;;
12631;SDS011;6381;45.748;12.106;2022-09-29T12:14:56;4.00;;;2.30;;
12631;SDS011;6381;45.748;12.106;2022-09-29T12:17:34;3.17;;;2.28;;
12631;SDS011;6381;45.748;12.106;2022-09-29T12:20:24;3.28;;;2.17;;
12631;SDS011;6381;45.748;12.106;2022-09-29T12:23:13;2.75;;;1.90;;
12631;SDS011;6381;45.748;12.106;2022-09-29T12:25:49;2.70;;;1.83;;
12631;SDS011;6381;45.748;12.106;2022-09-29T12:28:33;2.10;;;1.30;;
12631;SDS011;6381;45.748;12.106;2022-09-29T12:31:07;3.65;;;1.70;;
12631;SDS011;6381;45.748;12.106;2022-09-29T12:33:40;2.53;;;1.52;;
12631;SDS011;6381;45.748;12.106;2022-09-29T12:36:17;1.77;;;1.45;;
12631;SDS011;6381;45.748;12.106;2022-09-29T12:39:31;1.80;;;1.30;;
12631;SDS011;6381;45.748;12.106;2022-09-29T12:42:09;1.38;;;1.23;;
12631;SDS011;6381;45.748;12.106;2022-09-29T12:44:47;1.80;;;1.23;;
12631;SDS011;6381;45.748;12.106;2022-09-29T12:47:21;3.00;;;1.42;;
12631;SDS011;6381;45.748;12.106;2022-09-29T12:49:58;2.55;;;1.63;;
12631;SDS011;6381;45.748;12.106;2022-09-29T12:52:31;2.40;;;1.38;;
12631;SDS011;6381;45.748;12.106;2022-09-29T12:55:09;2.45;;;1.40;;
12631;SDS011;6381;45.748;12.106;2022-09-29T12:57:46;2.63;;;1.30;;
12631;SDS011;6381;45.748;12.106;2022-09-29T13:00:38;2.58;;;1.30;;
12631;SDS011;6381;45.748;12.106;2022-09-29T13:03:21;1.27;;;1.00;;
12631;SDS011;6381;45.748;12.106;2022-09-29T13:12:17;1.25;;;0.90;;
12631;SDS011;6381;45.748;12.106;2022-09-29T13:15:16;2.17;;;1.23;;
12631;SDS011;6381;45.748;12.106;2022-09-29T13:21:33;2.42;;;1.17;;
12631;SDS011;6381;45.748;12.106;2022-09-29T13:24:21;1.67;;;1.30;;
12631;SDS011;6381;45.748;12.106;2022-09-29T13:30:11;2.55;;;1.50;;
12631;SDS011;6381;45.748;12.106;2022-09-29T13:32:43;3.53;;;1.40;;
12631;SDS011;6381;45.748;12.106;2022-09-29T13:35:16;1.48;;;1.13;;
12631;SDS011;6381;45.748;12.106;2022-09-29T13:37:48;2.10;;;1.20;;
12631;SDS011;6381;45.748;12.106;2022-09-29T13:40:19;1.85;;;1.40;;
12631;SDS011;6381;45.748;12.106;2022-09-29T13:42:50;3.78;;;1.55;;
12631;SDS011;6381;45.748;12.106;2022-09-29T13:51:22;6.00;;;1.90;;
12631;SDS011;6381;45.748;12.106;2022-09-29T14:00:20;2.70;;;1.58;;
12631;SDS011;6381;45.748;12.106;2022-09-29T14:03:18;2.78;;;1.60;;
12631;SDS011;6381;45.748;12.106;2022-09-29T14:06:03;4.30;;;2.03;;
12631;SDS011;6381;45.748;12.106;2022-09-29T14:08:57;4.00;;;1.75;;
12631;SDS011;6381;45.748;12.106;2022-09-29T14:11:30;4.05;;;1.70;;
12631;SDS011;6381;45.748;12.106;2022-09-29T14:14:03;4.75;;;2.00;;
12631;SDS011;6381;45.748;12.106;2022-09-29T14:19:45;5.55;;;2.30;;
12631;SDS011;6381;45.748;12.106;2022-09-29T14:25:26;5.03;;;2.42;;
12631;SDS011;6381;45.748;12.106;2022-09-29T14:28:11;3.90;;;2.00;;
12631;SDS011;6381;45.748;12.106;2022-09-29T14:30:42;2.72;;;2.10;;
12631;SDS011;6381;45.748;12.106;2022-09-29T14:33:17;4.20;;;2.13;;
12631;SDS011;6381;45.748;12.106;2022-09-29T14:35:52;3.53;;;2.15;;
12631;SDS011;6381;45.748;12.106;2022-09-29T14:38:29;2.55;;;1.80;;
12631;SDS011;6381;45.748;12.106;2022-09-29T14:41:22;6.68;;;2.45;;
12631;SDS011;6381;45.748;12.106;2022-09-29T14:44:17;6.05;;;2.42;;
12631;SDS011;6381;45.748;12.106;2022-09-29T14:47:16;4.18;;;2.28;;
12631;SDS011;6381;45.748;12.106;2022-09-29T14:50:24;3.13;;;2.10;;
12631;SDS011;6381;45.748;12.106;2022-09-29T14:53:21;7.38;;;2.25;;
12631;SDS011;6381;45.748;12.106;2022-09-29T14:56:13;6.43;;;2.40;;
12631;SDS011;6381;45.748;12.106;2022-09-29T14:58:55;12.93;;;3.58;;
12631;SDS011;6381;45.748;12.106;2022-09-29T15:01:32;8.02;;;2.92;;
12631;SDS011;6381;45.748;12.106;2022-09-29T15:04:38;13.82;;;4.18;;
12631;SDS011;6381;45.748;12.106;2022-09-29T15:07:09;8.20;;;3.50;;
12631;SDS011;6381;45.748;12.106;2022-09-29T15:09:42;7.93;;;3.03;;
12631;SDS011;6381;45.748;12.106;2022-09-29T15:12:15;5.78;;;2.85;;
12631;SDS011;6381;45.748;12.106;2022-09-29T15:14:48;6.03;;;2.95;;
12631;SDS011;6381;45.748;12.106;2022-09-29T15:17:19;4.43;;;2.38;;
12631;SDS011;6381;45.748;12.106;2022-09-29T15:19:59;7.85;;;3.80;;
12631;SDS011;6381;45.748;12.106;2022-09-29T15:22:37;5.15;;;3.20;;
12631;SDS011;6381;45.748;12.106;2022-09-29T15:25:20;5.95;;;2.70;;
12631;SDS011;6381;45.748;12.106;2022-09-29T15:27:57;7.03;;;2.97;;
12631;SDS011;6381;45.748;12.106;2022-09-29T15:30:29;9.10;;;3.63;;
12631;SDS011;6381;45.748;12.106;2022-09-29T15:33:07;5.35;;;3.40;;
12631;SDS011;6381;45.748;12.106;2022-09-29T15:35:46;8.90;;;3.10;;
12631;SDS011;6381;45.748;12.106;2022-09-29T15:38:28;7.88;;;3.00;;
12631;SDS011;6381;45.748;12.106;2022-09-29T15:41:01;7.13;;;2.83;;
12631;SDS011;6381;45.748;12.106;2022-09-29T15:43:53;8.73;;;2.70;;
12631;SDS011;6381;45.748;12.106;2022-09-29T15:46:24;5.30;;;1.92;;
12631;SDS011;6381;45.748;12.106;2022-09-29T15:49:06;3.83;;;2.10;;
12631;SDS011;6381;45.748;12.106;2022-09-29T15:51:41;3.45;;;1.90;;
12631;SDS011;6381;45.748;12.106;2022-09-29T15:54:13;3.83;;;2.05;;
12631;SDS011;6381;45.748;12.106;2022-09-29T15:56:42;5.13;;;2.53;;
12631;SDS011;6381;45.748;12.106;2022-09-29T15:59:39;2.95;;;2.30;;
12631;SDS011;6381;45.748;12.106;2022-09-29T16:02:21;6.57;;;3.33;;
12631;SDS011;6381;45.748;12.106;2022-09-29T16:05:13;3.40;;;2.10;;
12631;SDS011;6381;45.748;12.106;2022-09-29T16:07:46;2.95;;;1.88;;
12631;SDS011;6381;45.748;12.106;2022-09-29T16:10:20;3.22;;;1.75;;
12631;SDS011;6381;45.748;12.106;2022-09-29T16:12:51;2.28;;;1.48;;
12631;SDS011;6381;45.748;12.106;2022-09-29T16:15:23;2.65;;;1.60;;
12631;SDS011;6381;45.748;12.106;2022-09-29T16:17:55;1.60;;;1.38;;